עמוד ראשי
METAR-TAF:

METAR-TAF

שדות תעופה :

Hydaburg, אלסקה, ארצות הברית

קו רוחב: 55-12N, קו אורך: 132-50W, גובה: 0מטר

תצפית מזג אוויר נוכחית

הדו"ח נערך לפני 57דקות, בשעה 09:56 UTC
רוח רגועה
טמפרטורת 12 צלסיוס
לחות 88%
לחץ 1016 hPa
ראות: 16.1קילומטר
עננים בינוניים בגובה 2100רגל
מעונן בגובה 3400רגל

METAR: PAHY 240956Z AUTO 00000KT 10SM BKN021 OVC034 12/10 A2999 RMK AO2 SLP152 T01170100 PNO $

זמן: 02:53 (10:53 UTC)


TAF: חסר

תצפיות ותחזיות מזג אוויר לגבי יותר מ- 4,000 שדות תעופה ברחבי העולם. דוחות METAR ו- TAF.

התחנות הזמינות מסומנות בנקודות צהובות ואדומות על גבי המפה.

העבר את העכבר לנקודה הצבעונית על מנת לראות את שם התחנה.

לאחר מכן, לחץ כדי לראות את תוכן ואת תחזיות מזג האוויר.

כדי לשנות את המפה: לחץ על הכפתורים הירוקים עם הפלוס השחור כדי להתקרב; על הכפתור הירוק עם המקף כדי להתרחק; או בחיצים הירוקים למפות סמוכות.


METAR-TAF: